createdAt,value
2019-02-28T00:00:44.525Z,88.30
2019-02-28T00:03:16.529Z,88.80
2019-02-28T00:05:46.917Z,88.40
2019-02-28T00:08:17.337Z,88.50
2019-02-28T00:10:47.707Z,88.80
2019-02-28T00:13:21.658Z,90.10
2019-02-28T00:15:51.365Z,89.60
2019-02-28T00:18:21.739Z,89.90
2019-02-28T00:20:52.104Z,89.70
2019-02-28T00:23:22.870Z,89.20
2019-02-28T00:25:53.248Z,90.20
2019-02-28T00:28:25.764Z,90.00
2019-02-28T00:30:55.568Z,90.20
2019-02-28T00:33:25.938Z,90.40
2019-02-28T00:35:56.280Z,90.20
2019-02-28T00:38:29.454Z,89.90
2019-02-28T00:40:58.621Z,89.10
2019-02-28T00:43:28.997Z,89.40
2019-02-28T00:45:59.341Z,89.10
2019-02-28T00:48:30.077Z,89.90
2019-02-28T00:51:00.422Z,88.70
2019-02-28T00:53:30.782Z,89.00
2019-02-28T00:56:01.134Z,88.30
2019-02-28T00:58:31.802Z,87.90
2019-02-28T01:01:02.161Z,87.10
2019-02-28T01:03:33.653Z,86.80
2019-02-28T01:06:04.025Z,87.00
2019-02-28T01:08:34.453Z,86.50
2019-02-28T01:11:04.846Z,85.90
2019-02-28T01:13:36.271Z,85.60
2019-02-28T01:16:06.626Z,85.40
2019-02-28T01:18:37.597Z,84.80
2019-02-28T01:21:07.991Z,84.80
2019-02-28T01:23:39.445Z,84.80
2019-02-28T01:26:11.748Z,84.50
2019-02-28T01:28:41.756Z,84.10
2019-02-28T01:31:12.317Z,84.00
2019-02-28T01:33:42.793Z,83.60
2019-02-28T01:36:15.649Z,83.40
2019-02-28T01:38:45.147Z,83.40
2019-02-28T01:41:15.470Z,83.30
2019-02-28T01:43:46.805Z,83.20
2019-02-28T01:46:18.203Z,83.00
2019-02-28T01:48:48.569Z,83.10
2019-02-28T01:51:18.913Z,83.30
2019-02-28T01:53:50.382Z,83.20
2019-02-28T01:56:21.221Z,83.40
2019-02-28T01:58:51.578Z,83.10
2019-02-28T02:01:21.919Z,83.30
2019-02-28T02:03:52.345Z,83.10
2019-02-28T02:06:25.734Z,83.00
2019-02-28T02:08:54.717Z,83.00
2019-02-28T02:11:26.680Z,83.30
2019-02-28T02:13:58.286Z,83.40
2019-02-28T02:16:28.627Z,83.40
2019-02-28T02:18:58.989Z,83.60
2019-02-28T02:21:31.406Z,83.70
2019-02-28T02:24:01.310Z,83.70
2019-02-28T02:26:31.845Z,83.70
2019-02-28T02:29:02.233Z,84.00
2019-02-28T02:31:32.570Z,84.30
2019-02-28T02:34:02.949Z,84.40
2019-02-28T02:36:33.278Z,84.40
2019-02-28T02:39:04.927Z,84.60
2019-02-28T02:41:35.986Z,84.80
2019-02-28T02:44:06.329Z,85.00
2019-02-28T02:46:36.662Z,85.10
2019-02-28T02:49:07.060Z,85.20
2019-02-28T02:51:37.373Z,85.40
2019-02-28T02:54:07.732Z,85.40
2019-02-28T02:56:41.986Z,85.70
2019-02-28T02:59:10.170Z,85.80
2019-02-28T03:01:40.494Z,86.20
2019-02-28T03:04:10.866Z,85.90
2019-02-28T03:06:41.201Z,86.30
2019-02-28T03:09:11.586Z,86.70
2019-02-28T03:11:41.988Z,87.00
2019-02-28T03:14:16.352Z,87.00
2019-02-28T03:16:44.307Z,87.20
2019-02-28T03:19:14.630Z,87.20
2019-02-28T03:21:51.526Z,87.60
2019-02-28T03:24:17.059Z,87.60
2019-02-28T03:26:47.518Z,88.10
2019-02-28T03:29:17.858Z,87.50
2019-02-28T03:31:54.930Z,87.80
2019-02-28T03:34:20.178Z,88.20
2019-02-28T03:36:55.495Z,88.00
2019-02-28T03:39:24.551Z,88.20
2019-02-28T03:41:55.581Z,88.60
2019-02-28T03:44:25.918Z,88.50
2019-02-28T03:46:56.479Z,88.60
2019-02-28T03:49:26.812Z,88.50
2019-02-28T03:51:57.182Z,88.70
2019-02-28T03:54:28.794Z,88.80
2019-02-28T03:56:59.542Z,89.10
2019-02-28T03:59:29.879Z,89.10
2019-02-28T04:02:00.250Z,89.60
2019-02-28T04:04:30.587Z,89.60
2019-02-28T04:07:00.953Z,89.40
2019-02-28T04:09:31.329Z,89.70
2019-02-28T04:12:07.284Z,90.20
2019-02-28T04:14:34.396Z,90.10
2019-02-28T04:17:04.966Z,90.00
2019-02-28T04:19:35.327Z,90.40
2019-02-28T04:22:05.690Z,90.40
2019-02-28T04:24:36.064Z,90.50
2019-02-28T04:27:07.784Z,90.60
2019-02-28T04:29:38.276Z,90.60
2019-02-28T04:32:08.708Z,90.70
2019-02-28T04:34:39.045Z,90.80
2019-02-28T04:37:09.711Z,90.70
2019-02-28T04:39:41.296Z,90.70
2019-02-28T04:42:11.653Z,91.10
2019-02-28T04:44:42.040Z,91.00
2019-02-28T04:47:12.386Z,91.10
2019-02-28T04:49:42.759Z,91.10
2019-02-28T04:52:13.108Z,91.20
2019-02-28T04:54:43.489Z,91.30
2019-02-28T04:57:17.423Z,91.20
2019-02-28T04:59:47.501Z,91.40
2019-02-28T05:02:20.048Z,91.50
2019-02-28T05:04:49.937Z,91.60
2019-02-28T05:07:20.290Z,91.70
2019-02-28T05:09:50.657Z,91.80
2019-02-28T05:12:21.282Z,91.70
2019-02-28T05:14:51.614Z,91.60
2019-02-28T05:17:22.272Z,91.80
2019-02-28T05:19:55.140Z,91.90
2019-02-28T05:22:27.557Z,91.50
2019-02-28T05:24:57.559Z,92.00
2019-02-28T05:27:27.961Z,92.00
2019-02-28T05:29:58.289Z,92.20
2019-02-28T05:32:28.658Z,92.10
2019-02-28T05:34:59.014Z,92.40
2019-02-28T05:37:29.371Z,92.40
2019-02-28T05:40:05.423Z,92.50
2019-02-28T05:42:32.741Z,92.50
2019-02-28T05:45:03.200Z,92.60
2019-02-28T05:47:42.487Z,92.70
2019-02-28T05:50:05.785Z,92.80
2019-02-28T05:52:36.137Z,92.70
2019-02-28T05:55:06.757Z,92.70
2019-02-28T05:57:39.428Z,92.90
2019-02-28T06:00:10.577Z,93.20
2019-02-28T06:02:40.921Z,93.00
2019-02-28T06:05:11.949Z,93.30
2019-02-28T06:07:43.185Z,93.40
2019-02-28T06:10:13.564Z,93.30
2019-02-28T06:12:44.800Z,93.30
2019-02-28T06:15:15.458Z,93.40
2019-02-28T06:17:45.804Z,93.60
2019-02-28T06:20:17.085Z,93.60
2019-02-28T06:22:48.173Z,93.40
2019-02-28T06:25:24.008Z,93.50
2019-02-28T06:27:50.821Z,93.70
2019-02-28T06:30:21.192Z,93.70
2019-02-28T06:32:51.562Z,93.40
2019-02-28T06:35:21.923Z,93.60
2019-02-28T06:37:52.557Z,93.30
2019-02-28T06:40:23.285Z,93.50
2019-02-28T06:42:55.771Z,93.50
2019-02-28T06:45:25.629Z,93.50
2019-02-28T06:47:55.985Z,93.70
2019-02-28T06:50:26.367Z,93.70
2019-02-28T06:52:59.315Z,93.70
2019-02-28T06:55:28.773Z,93.60
2019-02-28T06:58:02.945Z,93.60
2019-02-28T07:00:33.330Z,93.60
2019-02-28T07:03:04.455Z,93.60
2019-02-28T07:05:34.978Z,93.70
2019-02-28T07:08:05.326Z,93.70
2019-02-28T07:10:35.693Z,93.60
2019-02-28T07:13:06.145Z,93.50
2019-02-28T07:15:36.457Z,93.20
2019-02-28T07:18:06.841Z,93.00
2019-02-28T07:20:37.182Z,93.20
2019-02-28T07:23:07.554Z,93.20
2019-02-28T07:25:37.897Z,93.00
2019-02-28T07:28:08.403Z,93.00
2019-02-28T07:30:38.705Z,92.90
2019-02-28T07:33:10.591Z,92.80
2019-02-28T07:35:41.204Z,92.80
2019-02-28T07:38:11.599Z,92.70
2019-02-28T07:40:42.001Z,92.80
2019-02-28T07:43:13.241Z,92.30
2019-02-28T07:45:44.810Z,92.40
2019-02-28T07:48:15.267Z,92.30
2019-02-28T07:50:46.688Z,92.30
2019-02-28T07:53:18.041Z,92.30
2019-02-28T07:55:48.408Z,92.30
2019-02-28T07:58:19.709Z,92.10
2019-02-28T08:00:52.695Z,92.00
2019-02-28T08:03:22.181Z,91.70
2019-02-28T08:05:52.565Z,91.30
2019-02-28T08:08:23.390Z,91.40
2019-02-28T08:10:55.136Z,91.40
2019-02-28T08:13:25.527Z,91.30
2019-02-28T08:15:56.937Z,91.30
2019-02-28T08:18:27.997Z,91.10
2019-02-28T08:20:58.532Z,91.00
2019-02-28T08:23:30.234Z,90.50
2019-02-28T08:26:01.209Z,90.40
2019-02-28T08:28:35.829Z,90.00
2019-02-28T08:31:04.350Z,89.00
2019-02-28T08:33:34.712Z,88.20
2019-02-28T08:36:11.611Z,85.00
2019-02-28T08:38:37.601Z,84.40
2019-02-28T08:41:07.999Z,81.10
2019-02-28T08:43:38.354Z,79.40
2019-02-28T08:46:11.122Z,79.50
2019-02-28T08:48:41.122Z,77.10
2019-02-28T08:51:11.557Z,76.80
2019-02-28T08:53:41.961Z,77.20
2019-02-28T08:56:14.060Z,76.10
2019-02-28T08:58:44.454Z,77.80
2019-02-28T09:01:15.020Z,77.40
2019-02-28T09:03:45.364Z,76.40
2019-02-28T09:06:15.759Z,76.10
2019-02-28T09:08:46.145Z,74.40
2019-02-28T09:11:20.617Z,74.20
2019-02-28T09:13:48.907Z,75.10
2019-02-28T09:16:19.239Z,73.80
2019-02-28T09:18:49.712Z,73.80
2019-02-28T09:21:20.061Z,74.70
2019-02-28T09:23:50.578Z,74.40
2019-02-28T09:26:20.921Z,74.40
2019-02-28T09:28:51.405Z,75.00
2019-02-28T09:31:21.745Z,74.40
2019-02-28T09:33:52.137Z,74.70
2019-02-28T09:36:22.781Z,75.20
2019-02-28T09:38:57.047Z,74.40
2019-02-28T09:41:25.182Z,73.60
2019-02-28T09:43:56.887Z,72.30
2019-02-28T09:46:27.537Z,71.80
2019-02-28T09:48:59.933Z,68.40
2019-02-28T09:51:31.994Z,69.00
2019-02-28T09:54:02.022Z,69.00
2019-02-28T09:56:32.385Z,70.40
2019-02-28T09:59:03.137Z,72.30
2019-02-28T10:01:35.373Z,69.40
2019-02-28T10:04:05.793Z,71.40
2019-02-28T10:06:37.229Z,70.70
2019-02-28T10:09:10.525Z,68.80
2019-02-28T10:11:40.871Z,70.50
2019-02-28T10:14:12.220Z,70.40
2019-02-28T10:16:42.745Z,71.30
2019-02-28T10:19:13.288Z,70.70
2019-02-28T10:21:44.563Z,70.60
2019-02-28T10:24:14.929Z,71.60
2019-02-28T10:26:48.119Z,70.60
2019-02-28T10:29:17.287Z,71.00
2019-02-28T10:31:47.749Z,70.40
2019-02-28T10:34:18.186Z,72.00
2019-02-28T10:36:48.928Z,71.80
2019-02-28T10:39:19.346Z,71.20
2019-02-28T10:41:49.810Z,70.30
2019-02-28T10:44:20.222Z,70.70
2019-02-28T10:46:53.962Z,70.70
2019-02-28T10:49:24.149Z,71.60
2019-02-28T10:51:54.702Z,71.40
2019-02-28T10:54:25.089Z,72.50
2019-02-28T10:56:56.741Z,71.50
2019-02-28T10:59:27.097Z,72.80
2019-02-28T11:01:57.581Z,72.40
2019-02-28T11:04:27.941Z,72.40
2019-02-28T11:06:59.384Z,72.10
2019-02-28T11:09:30.393Z,72.50
2019-02-28T11:12:01.004Z,72.00
2019-02-28T11:14:35.495Z,73.00
2019-02-28T11:17:04.603Z,74.00
2019-02-28T11:19:35.381Z,73.80
2019-02-28T11:22:06.049Z,73.00
2019-02-28T11:24:36.474Z,72.20
2019-02-28T11:27:08.318Z,73.70
2019-02-28T11:29:38.674Z,73.20
2019-02-28T11:32:09.497Z,73.20
2019-02-28T11:34:40.197Z,73.60
2019-02-28T11:37:12.710Z,73.60
2019-02-28T11:39:43.133Z,75.30
2019-02-28T11:42:13.781Z,74.60
2019-02-28T11:44:46.743Z,74.20
2019-02-28T11:47:16.853Z,74.20
2019-02-28T11:49:47.209Z,75.40
2019-02-28T11:52:17.588Z,75.40
2019-02-28T11:54:48.288Z,74.60
2019-02-28T11:57:20.526Z,74.70
2019-02-28T11:59:50.745Z,75.40
2019-02-28T12:02:21.475Z,74.30
2019-02-28T12:04:53.049Z,73.90
2019-02-28T12:07:23.933Z,73.20
2019-02-28T12:09:54.739Z,74.30
2019-02-28T12:12:26.089Z,74.60
2019-02-28T12:14:56.808Z,74.20
2019-02-28T12:17:28.551Z,74.70
2019-02-28T12:19:59.241Z,74.30
2019-02-28T12:22:29.645Z,74.50
2019-02-28T12:24:59.993Z,73.80
2019-02-28T12:27:31.361Z,73.60
2019-02-28T12:30:01.707Z,73.80
2019-02-28T12:32:32.165Z,74.10
2019-02-28T12:35:02.545Z,74.40
2019-02-28T12:37:34.439Z,74.70
2019-02-28T12:40:10.048Z,74.20
2019-02-28T12:42:39.593Z,73.50
2019-02-28T12:45:16.280Z,75.80
2019-02-28T12:47:46.694Z,73.60
2019-02-28T12:50:17.164Z,73.00
2019-02-28T12:52:49.982Z,73.50
2019-02-28T12:55:20.590Z,74.20
2019-02-28T12:57:51.750Z,74.40
2019-02-28T13:00:25.054Z,73.60
2019-02-28T13:02:55.624Z,73.10
2019-02-28T13:05:26.104Z,73.50
2019-02-28T13:07:56.801Z,73.60
2019-02-28T13:10:28.582Z,73.40
2019-02-28T13:13:06.280Z,74.40
2019-02-28T13:15:33.522Z,74.40
2019-02-28T13:18:07.261Z,73.60
2019-02-28T13:20:36.519Z,73.10
2019-02-28T13:23:08.854Z,73.50
2019-02-28T13:25:39.609Z,73.20
2019-02-28T13:28:10.026Z,74.00
2019-02-28T13:30:45.050Z,74.30
2019-02-28T13:33:14.999Z,73.60
2019-02-28T13:35:47.213Z,74.10
2019-02-28T13:38:19.112Z,74.50
2019-02-28T13:40:49.428Z,73.10
2019-02-28T13:43:22.657Z,74.10
2019-02-28T13:45:55.974Z,73.70
2019-02-28T13:48:26.556Z,74.50
2019-02-28T13:50:59.360Z,74.70
2019-02-28T13:53:30.758Z,74.40
2019-02-28T13:56:01.353Z,74.90
2019-02-28T13:58:32.366Z,75.10
2019-02-28T14:01:03.114Z,75.50
2019-02-28T14:03:33.666Z,75.30
2019-02-28T14:06:04.022Z,75.20
2019-02-28T14:08:35.010Z,75.40
2019-02-28T14:11:05.812Z,76.20
2019-02-28T14:13:37.710Z,76.00
2019-02-28T14:16:09.540Z,76.50
2019-02-28T14:18:42.513Z,76.60
2019-02-28T14:21:13.155Z,76.60
2019-02-28T14:23:43.654Z,76.80
2019-02-28T14:26:14.196Z,76.80
2019-02-28T14:28:45.361Z,77.00
2019-02-28T14:31:16.785Z,77.30
2019-02-28T14:33:47.266Z,77.50
2019-02-28T14:36:17.633Z,77.60
2019-02-28T14:38:48.195Z,78.20
2019-02-28T14:41:18.549Z,78.10
2019-02-28T14:43:48.944Z,78.00
2019-02-28T14:46:19.296Z,78.30
2019-02-28T14:48:49.797Z,78.50
2019-02-28T14:51:20.170Z,78.90
2019-02-28T14:53:50.581Z,79.20
2019-02-28T14:56:20.976Z,79.80
2019-02-28T14:58:54.491Z,80.50
2019-02-28T15:01:23.472Z,80.60
2019-02-28T15:03:53.861Z,81.20
2019-02-28T15:06:26.412Z,81.40
2019-02-28T15:08:56.329Z,81.60
2019-02-28T15:11:26.793Z,81.80
2019-02-28T15:13:57.266Z,82.20
2019-02-28T15:16:29.637Z,82.70
2019-02-28T15:19:00.070Z,83.10
2019-02-28T15:21:30.714Z,83.40
2019-02-28T15:24:01.178Z,83.50
2019-02-28T15:26:33.126Z,83.60
2019-02-28T15:29:03.622Z,83.80
2019-02-28T15:31:34.001Z,84.10
2019-02-28T15:34:05.497Z,84.40
2019-02-28T15:36:36.645Z,84.40
2019-02-28T15:39:07.994Z,84.90
2019-02-28T15:41:38.663Z,85.20
2019-02-28T15:44:09.130Z,85.70
2019-02-28T15:46:39.484Z,86.20
2019-02-28T15:49:10.740Z,86.00
2019-02-28T15:51:41.325Z,86.40
2019-02-28T15:54:11.754Z,86.60
2019-02-28T15:56:42.109Z,86.70
2019-02-28T15:59:14.861Z,86.90
2019-02-28T16:01:44.893Z,87.50
2019-02-28T16:04:15.399Z,87.40
2019-02-28T16:06:45.790Z,88.20
2019-02-28T16:09:18.763Z,88.00
2019-02-28T16:11:48.627Z,88.50
2019-02-28T16:14:20.229Z,88.50
2019-02-28T16:16:50.921Z,88.90
2019-02-28T16:19:21.962Z,89.40
2019-02-28T16:21:54.210Z,90.00
2019-02-28T16:24:24.607Z,89.70
2019-02-28T16:26:56.731Z,89.30
2019-02-28T16:29:27.053Z,90.10
2019-02-28T16:31:57.406Z,90.30
2019-02-28T16:34:27.877Z,90.50
2019-02-28T16:37:01.118Z,90.60
2019-02-28T16:39:30.329Z,90.70
2019-02-28T16:42:00.693Z,90.80
2019-02-28T16:44:31.826Z,90.80
2019-02-28T16:47:02.205Z,91.00
2019-02-28T16:49:32.601Z,91.20
2019-02-28T16:52:05.979Z,91.10
2019-02-28T16:54:34.952Z,91.20
2019-02-28T16:57:05.445Z,91.20
2019-02-28T16:59:35.822Z,91.40
2019-02-28T17:02:06.589Z,91.30
2019-02-28T17:04:36.936Z,91.20
2019-02-28T17:07:09.403Z,90.90
2019-02-28T17:09:42.195Z,91.60
2019-02-28T17:12:27.180Z,91.70
2019-02-28T17:14:58.397Z,91.70
2019-02-28T17:17:35.937Z,91.70
2019-02-28T17:20:07.195Z,91.70
2019-02-28T17:22:37.654Z,91.80
2019-02-28T17:25:08.113Z,92.00
2019-02-28T17:27:45.112Z,92.10
2019-02-28T17:30:23.715Z,92.20
2019-02-28T17:32:54.083Z,92.00
2019-02-28T17:35:24.445Z,92.10
2019-02-28T17:37:59.852Z,91.70
2019-02-28T17:40:27.136Z,92.00
2019-02-28T17:42:57.550Z,92.40
2019-02-28T17:45:37.893Z,92.00
2019-02-28T17:48:57.333Z,92.50
2019-02-28T17:51:55.505Z,92.50
2019-02-28T17:55:06.665Z,92.10
2019-02-28T17:57:59.970Z,92.30
2019-02-28T18:01:14.574Z,92.50
2019-02-28T18:04:38.043Z,92.50
2019-02-28T18:07:54.460Z,92.50
2019-02-28T18:10:41.018Z,92.40
2019-02-28T18:13:37.301Z,92.30
2019-02-28T18:16:22.879Z,92.60
2019-02-28T18:19:37.028Z,92.50
2019-02-28T18:22:57.738Z,92.80
2019-02-28T18:26:15.174Z,92.70
2019-02-28T18:28:58.849Z,93.30
2019-02-28T18:31:29.285Z,93.10
2019-02-28T18:34:06.150Z,94.00
2019-02-28T18:36:36.805Z,93.30
2019-02-28T18:39:11.655Z,92.80
2019-02-28T18:41:43.020Z,93.10
2019-02-28T18:44:13.712Z,93.40
2019-02-28T18:46:44.138Z,93.10
2019-02-28T18:49:14.681Z,93.60
2019-02-28T18:51:45.101Z,94.00
2019-02-28T18:54:15.689Z,94.10
2019-02-28T18:56:46.121Z,93.80
2019-02-28T18:59:16.594Z,94.10
2019-02-28T19:01:46.939Z,93.90
2019-02-28T19:04:17.737Z,94.70
2019-02-28T19:06:48.166Z,93.90
2019-02-28T19:09:25.421Z,94.40
2019-02-28T19:11:55.844Z,94.70
2019-02-28T19:14:26.440Z,94.60
2019-02-28T19:16:56.775Z,95.10
2019-02-28T19:19:27.170Z,95.10
2019-02-28T19:21:57.585Z,95.80
2019-02-28T19:24:28.358Z,95.80
2019-02-28T19:26:58.774Z,95.90
2019-02-28T19:29:29.206Z,95.70
2019-02-28T19:31:59.631Z,95.50
2019-02-28T19:34:30.053Z,95.30
2019-02-28T19:37:00.478Z,95.90
2019-02-28T19:39:31.497Z,95.80
2019-02-28T19:42:01.922Z,96.90
2019-02-28T19:44:32.815Z,96.60
2019-02-28T19:47:03.181Z,96.00
2019-02-28T19:49:33.613Z,96.70
2019-02-28T19:52:03.977Z,96.80
2019-02-28T19:54:35.090Z,96.50
2019-02-28T19:57:05.547Z,96.60
2019-02-28T19:59:35.922Z,96.20
2019-02-28T20:02:06.293Z,96.40
2019-02-28T20:04:36.687Z,97.00
2019-02-28T20:07:07.173Z,96.00
2019-02-28T20:09:37.613Z,96.30
2019-02-28T20:12:08.126Z,96.50
2019-02-28T20:14:38.479Z,96.30
2019-02-28T20:17:08.895Z,97.80
2019-02-28T20:19:39.311Z,97.10
2019-02-28T20:22:10.781Z,97.00
2019-02-28T20:24:41.145Z,97.10
2019-02-28T20:27:11.633Z,97.70
2019-02-28T20:29:43.068Z,97.50
2019-02-28T20:32:13.531Z,97.40
2019-02-28T20:34:43.968Z,97.90
2019-02-28T20:37:14.381Z,98.40
2019-02-28T20:39:44.741Z,97.30
2019-02-28T20:42:15.597Z,97.10
2019-02-28T20:44:46.037Z,97.30
2019-02-28T20:47:16.497Z,97.50
2019-02-28T20:49:46.938Z,97.10
2019-02-28T20:52:17.397Z,96.90
2019-02-28T20:54:48.224Z,97.40
2019-02-28T20:57:19.305Z,96.90
2019-02-28T20:59:49.757Z,97.00
2019-02-28T21:02:20.150Z,97.10
2019-02-28T21:04:50.583Z,97.40
2019-02-28T21:07:21.125Z,97.30
2019-02-28T21:09:51.597Z,97.40
2019-02-28T21:12:22.054Z,97.00
2019-02-28T21:14:52.458Z,97.00
2019-02-28T21:17:29.455Z,96.80
2019-02-28T21:19:56.453Z,96.70
2019-02-28T21:22:26.879Z,97.00
2019-02-28T21:24:57.349Z,97.10
2019-02-28T21:27:27.710Z,97.10
2019-02-28T21:29:58.113Z,97.10
2019-02-28T21:32:28.913Z,96.80
2019-02-28T21:34:59.469Z,97.20
2019-02-28T21:37:29.918Z,96.60
2019-02-28T21:40:00.974Z,96.60
2019-02-28T21:42:32.613Z,96.90
2019-02-28T21:45:03.401Z,96.80
2019-02-28T21:47:35.376Z,96.80
2019-02-28T21:50:07.430Z,97.00
2019-02-28T21:52:37.850Z,96.50
2019-02-28T21:55:09.910Z,96.60
2019-02-28T21:57:40.339Z,96.50
2019-02-28T22:00:13.750Z,96.40
2019-02-28T22:02:45.221Z,96.40
2019-02-28T22:05:16.538Z,96.20
2019-02-28T22:07:47.274Z,96.10
2019-02-28T22:10:18.009Z,96.20
2019-02-28T22:12:48.420Z,96.00
2019-02-28T22:15:19.621Z,96.00
2019-02-28T22:17:50.061Z,95.80
2019-02-28T22:20:24.911Z,96.10
2019-02-28T22:22:57.948Z,95.80
2019-02-28T22:25:31.096Z,95.90
2019-02-28T22:28:01.834Z,95.80
2019-02-28T22:31:00.551Z,95.70
2019-02-28T22:33:58.638Z,95.50
2019-02-28T22:36:32.522Z,95.60
2019-02-28T22:39:03.757Z,95.50
2019-02-28T22:41:36.078Z,95.40
2019-02-28T22:44:06.438Z,95.30
2019-02-28T22:46:36.828Z,95.20
2019-02-28T22:49:07.194Z,95.20
2019-02-28T22:51:37.545Z,95.20
2019-02-28T22:54:09.001Z,95.20
2019-02-28T22:56:39.727Z,95.30
2019-02-28T22:59:10.882Z,95.10
2019-02-28T23:01:42.640Z,94.90
2019-02-28T23:04:13.110Z,94.90
2019-02-28T23:06:43.554Z,94.90
2019-02-28T23:09:14.486Z,94.90
2019-02-28T23:11:44.914Z,94.90
2019-02-28T23:14:15.683Z,94.80
2019-02-28T23:16:46.030Z,95.10
2019-02-28T23:19:16.971Z,95.10
2019-02-28T23:21:47.317Z,94.80
2019-02-28T23:24:17.662Z,94.90
2019-02-28T23:27:09.463Z,94.70
2019-02-28T23:29:42.220Z,94.90
2019-02-28T23:32:36.986Z,94.60
2019-02-28T23:35:11.234Z,94.70
2019-02-28T23:37:41.630Z,94.60
2019-02-28T23:40:12.071Z,94.60
2019-02-28T23:42:42.935Z,94.70
2019-02-28T23:45:13.289Z,94.50
2019-02-28T23:47:43.715Z,94.90
2019-02-28T23:50:14.190Z,94.60
2019-02-28T23:52:44.671Z,95.00
2019-02-28T23:55:15.144Z,94.80
2019-02-28T23:57:47.110Z,94.60
